Pacific Reliance — WDI7757 — position and weather

sailwx.info

Track history (hours):
 
Tides and Currents Weather Stations Pressure Air Temp Water Temp Dewpoint Dewpoint Depression Visibility Wind Speed Wind Dir Waves Ship Positions

Pacific Reliance

Owner: Intrepid Ship Management, INC, jacksonville, FL. More information available from US FCC via Universal Licensing System and Coast Guard Vessel Documentation Center.

Last reported at 2018-May-21 22:31 UTC. Time now 2018-May-21 22:43 UTC.
Position N 39°21' W 075°26'.

Length 205 m; draft 7.2 m.

Type: Towing. MMSI: 367036000.

Date/timePositionNaut miles runAvg speedWind from/ knotsBaromVisibWave heightAir tempDewpointWater temp
2018-May-21 22:31N 39°21' W 075°26'611.1
2018-May-21 22:00N 39°25' W 075°31'5 9.6
2018-May-21 21:30N 39°30' W 075°34'5 9.3
2018-May-21 21:00N 39°34' W 075°33'4 8.3
2018-May-21 20:30N 39°39' W 075°33'5 9.0
2018-May-21 20:00N 39°42' W 075°30'0 0.2
2018-May-21 19:29N 39°43' W 075°30'0 0.0
2018-May-21 18:59N 39°43' W 075°30'0 0.0
2018-May-21 18:29N 39°43' W 075°30'0 0.2
2018-May-21 17:59N 39°43' W 075°31'1 2.9
2018-May-21 17:30N 39°44' W 075°30'510.6
2018-May-21 17:00N 39°48' W 075°26'1 2.8
2018-May-21 16:30N 39°49' W 075°24'0 0.1
2018-May-21 16:00N 39°48' W 075°24'0 0.0
2018-May-21 15:30N 39°48' W 075°24'0 0.0
2018-May-21 15:00N 39°48' W 075°24'0 0.0
2018-May-21 14:30N 39°48' W 075°24'0 0.0
2018-May-21 14:00N 39°48' W 075°24'0 0.0
2018-May-21 13:30N 39°48' W 075°24'0 0.0
2018-May-21 13:00N 39°48' W 075°24'0 0.0
2018-May-21 12:29N 39°48' W 075°24'0 0.0
2018-May-21 12:00N 39°48' W 075°24'0 0.1
2018-May-21 11:30N 39°48' W 075°24'0 0.3
2018-May-21 11:00N 39°49' W 075°24'0 0.1
2018-May-21 10:30N 39°49' W 075°24'0 0.0
2018-May-21 10:00N 39°49' W 075°24'0 0.0
2018-May-21 09:30N 39°49' W 075°24'0 0.0
2018-May-21 08:59N 39°49' W 075°24'0 0.0
2018-May-21 08:29N 39°49' W 075°24'0 0.0
2018-May-21 07:59N 39°49' W 075°24'0 0.0
2018-May-21 07:30N 39°49' W 075°24'0 0.0
2018-May-21 06:59N 39°49' W 075°24'0 0.0
2018-May-21 06:30N 39°49' W 075°24'0 0.2
2018-May-21 06:00N 39°49' W 075°24'0 0.3
2018-May-21 05:30N 39°48' W 075°24'0 0.1
2018-May-21 05:00N 39°48' W 075°24'0 0.1
2018-May-21 04:29N 39°48' W 075°24'0 0.1
2018-May-21 04:00N 39°48' W 075°24'0 0.0
2018-May-21 03:29N 39°48' W 075°24'0 0.0
2018-May-21 02:59N 39°48' W 075°24'0 0.0
2018-May-21 02:29N 39°48' W 075°24'0 0.0
2018-May-21 02:00N 39°48' W 075°24'0 0.0
2018-May-21 01:29N 39°48' W 075°24'0 0.0
2018-May-21 01:00N 39°48' W 075°24'0 0.1
2018-May-21 00:30N 39°48' W 075°24'0 0.1
2018-May-21 00:00N 39°48' W 075°24'0 0.1
2018-May-20 23:29N 39°48' W 075°24'0 0.1
2018-May-20 23:00N 39°48' W 075°24'0 0.3
2018-May-20 22:30N 39°49' W 075°24'0 0.0
2018-May-20 22:00N 39°49' W 075°24'0 0.1
2018-May-20 21:29N 39°49' W 075°24'2 3.7
2018-May-20 21:00N 39°50' W 075°22'4 7.1
2018-May-20 20:30N 39°51' W 075°18'1 2.5
2018-May-20 19:58N 39°51' W 075°16'0 0.0
2018-May-20 19:28N 39°51' W 075°16'0 0.0
2018-May-20 18:58N 39°51' W 075°16'0 0.0
2018-May-20 18:28N 39°51' W 075°16'0 0.0
2018-May-20 17:58N 39°51' W 075°16'0 0.0
2018-May-20 17:28N 39°51' W 075°16'0 0.0
2018-May-20 16:58N 39°51' W 075°16'0 0.0
2018-May-20 16:28N 39°51' W 075°16'0 0.0
2018-May-20 15:58N 39°51' W 075°16'0 0.0
2018-May-20 15:28N 39°51' W 075°16'0 0.0
2018-May-20 14:58N 39°51' W 075°16'0 0.0
2018-May-20 14:28N 39°51' W 075°16'0 0.0
2018-May-20 13:58N 39°51' W 075°16'0 0.0
2018-May-20 13:28N 39°51' W 075°16'0 0.0
2018-May-20 12:58N 39°51' W 075°16'0 0.0
2018-May-20 12:28N 39°51' W 075°16'0 0.0
2018-May-20 11:58N 39°51' W 075°16'0 0.0
2018-May-20 11:28N 39°51' W 075°16'0 0.0
2018-May-20 10:58N 39°51' W 075°16'0 0.0
2018-May-20 10:28N 39°51' W 075°16'0 0.0
2018-May-20 09:58N 39°51' W 075°16'0 0.0
2018-May-20 09:28N 39°51' W 075°16'0 0.0
2018-May-20 08:58N 39°51' W 075°16'0 0.0
2018-May-20 08:28N 39°51' W 075°16'0 0.0
2018-May-20 07:58N 39°51' W 075°16'0 0.0
2018-May-20 07:28N 39°51' W 075°16'0 0.0
2018-May-20 06:58N 39°51' W 075°16'0 0.0
2018-May-20 06:28N 39°51' W 075°16'0 0.0
2018-May-20 05:58N 39°51' W 075°16'0 0.0
2018-May-20 05:28N 39°51' W 075°16'0 0.0
2018-May-20 04:58N 39°51' W 075°16'0 0.0
2018-May-20 04:28N 39°51' W 075°16'0 0.0
2018-May-20 03:58N 39°51' W 075°16'0 0.0
2018-May-20 03:28N 39°51' W 075°16'0 0.0
2018-May-20 02:58N 39°51' W 075°16'0 0.0
2018-May-20 02:28N 39°51' W 075°16'0 0.0
2018-May-20 01:58N 39°51' W 075°16'0 0.0
2018-May-20 01:28N 39°51' W 075°16'0 0.0
2018-May-20 00:58N 39°51' W 075°16'0 0.0
2018-May-20 00:28N 39°51' W 075°16'0 0.0
2018-May-19 23:58N 39°51' W 075°16'0 0.0
2018-May-19 23:28N 39°51' W 075°16'0 0.0
2018-May-19 22:58N 39°51' W 075°16'0 0.0
2018-May-19 22:28N 39°51' W 075°16'0 0.0
2018-May-19 21:58N 39°51' W 075°16'0 0.0
2018-May-19 21:28N 39°51' W 075°16'0 0.0
2018-May-19 20:58N 39°51' W 075°16'0 0.0
2018-May-19 20:28N 39°51' W 075°16'0 0.0
2018-May-19 20:01N 39°51' W 075°16'0 0.0
2018-May-19 19:28N 39°51' W 075°16'0 0.0
2018-May-19 19:01N 39°51' W 075°16'0 0.0
2018-May-19 18:28N 39°51' W 075°16'0 0.0
2018-May-19 17:58N 39°51' W 075°16'0 0.0
2018-May-19 17:28N 39°51' W 075°16'0 0.0
2018-May-19 16:58N 39°51' W 075°16'0 0.0
2018-May-19 16:28N 39°51' W 075°16'0 0.0
2018-May-19 15:58N 39°51' W 075°16'0 0.0
2018-May-19 15:28N 39°51' W 075°16'0 0.0
2018-May-19 14:58N 39°51' W 075°16'0 0.0
2018-May-19 14:31N 39°51' W 075°16'0 0.0
2018-May-19 13:58N 39°51' W 075°16'0 0.0
2018-May-19 13:28N 39°51' W 075°16'0 0.0
2018-May-19 12:58N 39°51' W 075°16'0 0.0
2018-May-19 12:28N 39°51' W 075°16'0 0.0
2018-May-19 11:58N 39°51' W 075°16'0 0.0
2018-May-19 11:31N 39°51' W 075°16'0 0.0
2018-May-19 10:58N 39°51' W 075°16'0 0.0
2018-May-19 10:28N 39°51' W 075°16'0 0.0
2018-May-19 09:58N 39°51' W 075°16'0 0.0
2018-May-19 09:28N 39°51' W 075°16'0 0.0
2018-May-19 08:58N 39°51' W 075°16'0 0.0
2018-May-19 08:28N 39°51' W 075°16'0 0.0
2018-May-19 07:58N 39°51' W 075°16'0 0.0
2018-May-19 07:28N 39°51' W 075°16'0 0.0
2018-May-19 07:01N 39°51' W 075°16'0 0.0
2018-May-19 06:31N 39°51' W 075°16'0 0.0
2018-May-19 05:58N 39°51' W 075°16'0 0.0
2018-May-19 05:28N 39°51' W 075°16'0 0.0
2018-May-19 04:58N 39°51' W 075°16'0 0.0
2018-May-19 04:31N 39°51' W 075°16'0 0.0
2018-May-19 03:58N 39°51' W 075°16'0 0.0
2018-May-19 03:28N 39°51' W 075°16'0 0.0
2018-May-19 02:58N 39°51' W 075°16'0 0.0
2018-May-19 02:28N 39°51' W 075°16'0 0.0
2018-May-19 01:58N 39°51' W 075°16'0 0.0
2018-May-19 01:28N 39°51' W 075°16'0 0.0
2018-May-19 00:58N 39°51' W 075°16'0 0.0
2018-May-19 00:28N 39°51' W 075°16'0 0.0
2018-May-19 00:00N 39°51' W 075°16'0 0.0
2018-May-18 23:28N 39°51' W 075°16'0 0.0
2018-May-18 22:58N 39°51' W 075°16'0 0.0
2018-May-18 22:28N 39°51' W 075°16'0 0.0
2018-May-18 21:58N 39°51' W 075°16'0 0.0
2018-May-18 21:28N 39°51' W 075°16'0 0.0
2018-May-18 20:58N 39°51' W 075°16'0 0.0
2018-May-18 20:27N 39°51' W 075°16'0 0.0
2018-May-18 19:58N 39°51' W 075°16'0 0.0
2018-May-18 19:31N 39°51' W 075°16'0 0.0
2018-May-18 19:00N 39°51' W 075°16'0 0.5
2018-May-18 18:30N 39°51' W 075°16'5 9.9
2018-May-18 18:01N 39°50' W 075°22'2 4.7
2018-May-18 17:31N 39°48' W 075°24'0 0.2
2018-May-18 17:00N 39°48' W 075°24'0 0.4
2018-May-18 16:29N 39°48' W 075°24'0 0.0
2018-May-18 15:59N 39°48' W 075°25'0 0.0
2018-May-18 15:29N 39°48' W 075°25'0 0.0
2018-May-18 14:59N 39°48' W 075°25'0 0.0
2018-May-18 14:29N 39°48' W 075°25'0 0.0
2018-May-18 13:59N 39°48' W 075°25'0 0.0
2018-May-18 13:29N 39°48' W 075°25'0 0.0
2018-May-18 12:59N 39°48' W 075°25'0 0.0
2018-May-18 12:29N 39°48' W 075°25'0 0.1
2018-May-18 11:59N 39°48' W 075°24'0 0.0
2018-May-18 11:29N 39°48' W 075°24'0 0.0
2018-May-18 10:59N 39°48' W 075°24'0 0.0
2018-May-18 10:29N 39°48' W 075°25'0 0.0
2018-May-18 09:59N 39°48' W 075°25'0 0.0
2018-May-18 09:29N 39°48' W 075°25'0 0.2
2018-May-18 08:59N 39°48' W 075°25'0 0.3
2018-May-18 08:29N 39°48' W 075°24'0 0.1
2018-May-18 07:59N 39°48' W 075°24'0 0.0
2018-May-18 07:29N 39°48' W 075°24'0 0.0
2018-May-18 06:59N 39°48' W 075°24'0 0.0
2018-May-18 06:29N 39°48' W 075°24'0 0.0
2018-May-18 05:59N 39°48' W 075°24'0 0.0
2018-May-18 05:29N 39°48' W 075°24'0 0.0
2018-May-18 04:59N 39°48' W 075°24'0 0.0
2018-May-18 04:29N 39°48' W 075°24'0 0.0
2018-May-18 03:59N 39°48' W 075°24'0 0.0
2018-May-18 03:29N 39°48' W 075°24'0 0.4
2018-May-18 02:59N 39°48' W 075°24'0 0.1
2018-May-18 02:26N 39°48' W 075°24'0 0.1
2018-May-18 01:59N 39°48' W 075°24'0 0.0
2018-May-18 01:29N 39°48' W 075°24'0 0.9
2018-May-18 01:00N 39°48' W 075°25'5 9.0
2018-May-18 00:30N 39°45' W 075°29'5 9.3
2018-May-18 00:00N 39°41' W 075°31'4 8.9
2018-May-17 23:30N 39°37' W 075°35'5 9.0
2018-May-17 23:00N 39°33' W 075°33'5 9.3
2018-May-17 22:30N 39°28' W 075°34'4 8.9
2018-May-17 22:00N 39°25' W 075°30'4 9.1
2018-May-17 21:30N 39°21' W 075°26'5 9.0
2018-May-17 21:00N 39°18' W 075°23'5 9.3
2018-May-17 20:31N 39°14' W 075°19'5 9.3
2018-May-17 20:00N 39°10' W 075°16'5 9.8
2018-May-17 19:30N 39°06' W 075°12'5 9.7
2018-May-17 19:00N 39°02' W 075°09'5 9.7
2018-May-17 18:30N 38°57' W 075°07'5 9.9
2018-May-17 18:00N 38°53' W 075°04'37 8.1
2018-May-17 13:26N 39°07' W 074°21'1311.7
2018-May-17 12:18N 39°18' W 074°11'611.7
2018-May-17 11:47N 39°24' W 074°07'611.7
2018-May-17 11:18N 39°28' W 074°03'411.7
2018-May-17 10:59N 39°31' W 074°01'611.9
2018-May-17 10:29N 39°37' W 073°57'611.5
2018-May-17 10:00N 39°42' W 073°55'711.7
2018-May-17 09:27N 39°48' W 073°54'611.5
2018-May-17 08:56N 39°54' W 073°52'3910.9
2018-May-17 05:22N 40°32' W 074°01'513.2
2018-May-17 05:00N 40°37' W 074°03'3 4.2
2018-May-17 04:18N 40°39' W 074°06'0 0.0
2018-May-17 03:58N 40°39' W 074°06'0 0.0
2018-May-17 03:18N 40°39' W 074°06'0 0.0
2018-May-17 03:00N 40°39' W 074°06'0 0.0
2018-May-17 02:30N 40°39' W 074°06'0 0.0
2018-May-17 01:00N 40°39' W 074°06'0 0.0
2018-May-17 00:30N 40°39' W 074°06'0 0.0
2018-May-17 00:00N 40°39' W 074°06'0 0.0
2018-May-16 23:30N 40°39' W 074°06'0 0.0
2018-May-16 23:00N 40°39' W 074°06'0 0.0
2018-May-16 22:30N 40°39' W 074°06'0 0.0
2018-May-16 21:57N 40°39' W 074°06'0 0.0
2018-May-16 21:30N 40°39' W 074°06'0 0.0
2018-May-16 21:00N 40°39' W 074°06'0 0.0
2018-May-16 20:24N 40°39' W 074°06'0 0.0
2018-May-16 19:50N 40°39' W 074°06'0 0.0
2018-May-16 19:27N 40°39' W 074°06'0 0.0
2018-May-16 18:59N 40°39' W 074°06'0 0.0
2018-May-16 17:47N 40°39' W 074°06'0 0.0
2018-May-16 17:30N 40°39' W 074°06'0 0.0
2018-May-16 16:59N 40°39' W 074°06'0 0.0
2018-May-16 16:30N 40°39' W 074°06'0 0.0
2018-May-16 15:59N 40°39' W 074°06'0 0.0
2018-May-16 15:29N 40°39' W 074°06'0 0.0
2018-May-16 14:59N 40°39' W 074°06'0 0.0
2018-May-16 14:23N 40°39' W 074°06'0 0.0
2018-May-16 13:53N 40°39' W 074°06'0 0.0
2018-May-16 12:35N 40°39' W 074°06'0 0.0
2018-May-16 12:17N 40°39' W 074°06'0 0.1
2018-May-16 12:00N 40°39' W 074°06'2 3.3
2018-May-16 11:30N 40°39' W 074°04'3 6.3
2018-May-16 11:00N 40°36' W 074°02'3 6.7
2018-May-16 10:30N 40°33' W 074°01'611.6
2018-May-16 09:58N 40°29' W 073°54'5 0.8
2018-May-16 03:50N 40°24' W 073°55'0 0.0
2018-May-16 01:44N 40°24' W 073°55'0 0.0
2018-May-16 01:26N 40°24' W 073°55'0 0.0
2018-May-15 23:26N 40°24' W 073°55'134 9.1
2018-May-15 08:44N 38°12' W 074°24'312.0
2018-May-15 08:30N 38°10' W 074°25'611.5
2018-May-15 07:57N 38°04' W 074°28'611.2
2018-May-15 07:26N 37°58' W 074°30'511.6
2018-May-15 07:00N 37°53' W 074°32'20911.6
2018-May-14 13:01N 34°31' W 075°37'114.1
2018-May-14 12:59N 34°30' W 075°38'4714.2
2018-May-14 09:41N 33°51' W 076°09'312.8
2018-May-14 09:29N 33°49' W 076°11'612.9
2018-May-14 09:00N 33°44' W 076°15'612.6
2018-May-14 08:30N 33°40' W 076°20'612.8
2018-May-14 08:00N 33°35' W 076°25'713.7
2018-May-14 07:29N 33°30' W 076°31'714.4
2018-May-14 07:00N 33°24' W 076°37'914.6
2018-May-14 06:23N 33°18' W 076°44'614.5
2018-May-14 06:00N 33°14' W 076°49'814.5
2018-May-14 05:27N 33°08' W 076°55'39813.3
2018-May-12 23:23N 27°00' W 079°52'3015.0
2018-May-12 21:23N 26°30' W 079°52'615.4
2018-May-12 21:01N 26°24' W 079°53'815.4
2018-May-12 20:30N 26°16' W 079°53'815.5
2018-May-12 20:00N 26°09' W 079°54'714.8
2018-May-12 19:30N 26°01' W 079°55'815.8
2018-May-12 19:01N 25°54' W 079°56'815.7
2018-May-12 18:30N 25°46' W 079°56'815.4
2018-May-12 18:01N 25°38' W 079°57'815.1
2018-May-12 17:30N 25°30' W 079°57'714.8
2018-May-12 17:00N 25°23' W 079°58'  
Track history (hours):
 
Tides and Currents Weather Stations Pressure Air Temp Water Temp Dewpoint Dewpoint Depression Visibility Wind Speed Wind Dir Waves Ship Positions

Pacific Reliance

Owner: Intrepid Ship Management, INC, jacksonville, FL. More information available from US FCC via Universal Licensing System and Coast Guard Vessel Documentation Center.

Last reported at 2018-May-21 22:31 UTC. Time now 2018-May-21 22:43 UTC.
Position N 39°21' W 075°26'.

Length 205 m; draft 7.2 m.

Type: Towing. MMSI: 367036000.

Date/timePositionNaut miles runAvg speedWind from/ knotsBaromVisibWave heightAir tempDewpointWater temp
2018-May-21 22:31N 39°21' W 075°26'611.1
2018-May-21 22:00N 39°25' W 075°31'5 9.6
2018-May-21 21:30N 39°30' W 075°34'5 9.3
2018-May-21 21:00N 39°34' W 075°33'4 8.3
2018-May-21 20:30N 39°39' W 075°33'5 9.0
2018-May-21 20:00N 39°42' W 075°30'0 0.2
2018-May-21 19:29N 39°43' W 075°30'0 0.0
2018-May-21 18:59N 39°43' W 075°30'0 0.0
2018-May-21 18:29N 39°43' W 075°30'0 0.2
2018-May-21 17:59N 39°43' W 075°31'1 2.9
2018-May-21 17:30N 39°44' W 075°30'510.6
2018-May-21 17:00N 39°48' W 075°26'1 2.8
2018-May-21 16:30N 39°49' W 075°24'0 0.1
2018-May-21 16:00N 39°48' W 075°24'0 0.0
2018-May-21 15:30N 39°48' W 075°24'0 0.0
2018-May-21 15:00N 39°48' W 075°24'0 0.0
2018-May-21 14:30N 39°48' W 075°24'0 0.0
2018-May-21 14:00N 39°48' W 075°24'0 0.0
2018-May-21 13:30N 39°48' W 075°24'0 0.0
2018-May-21 13:00N 39°48' W 075°24'0 0.0
2018-May-21 12:29N 39°48' W 075°24'0 0.0
2018-May-21 12:00N 39°48' W 075°24'0 0.1
2018-May-21 11:30N 39°48' W 075°24'0 0.3
2018-May-21 11:00N 39°49' W 075°24'0 0.1
2018-May-21 10:30N 39°49' W 075°24'0 0.0
2018-May-21 10:00N 39°49' W 075°24'0 0.0
2018-May-21 09:30N 39°49' W 075°24'0 0.0
2018-May-21 08:59N 39°49' W 075°24'0 0.0
2018-May-21 08:29N 39°49' W 075°24'0 0.0
2018-May-21 07:59N 39°49' W 075°24'0 0.0
2018-May-21 07:30N 39°49' W 075°24'0 0.0
2018-May-21 06:59N 39°49' W 075°24'0 0.0
2018-May-21 06:30N 39°49' W 075°24'0 0.2
2018-May-21 06:00N 39°49' W 075°24'0 0.3
2018-May-21 05:30N 39°48' W 075°24'0 0.1
2018-May-21 05:00N 39°48' W 075°24'0 0.1
2018-May-21 04:29N 39°48' W 075°24'0 0.1
2018-May-21 04:00N 39°48' W 075°24'0 0.0
2018-May-21 03:29N 39°48' W 075°24'0 0.0
2018-May-21 02:59N 39°48' W 075°24'0 0.0
2018-May-21 02:29N 39°48' W 075°24'0 0.0
2018-May-21 02:00N 39°48' W 075°24'0 0.0
2018-May-21 01:29N 39°48' W 075°24'0 0.0
2018-May-21 01:00N 39°48' W 075°24'0 0.1
2018-May-21 00:30N 39°48' W 075°24'0 0.1
2018-May-21 00:00N 39°48' W 075°24'0 0.1
2018-May-20 23:29N 39°48' W 075°24'0 0.1
2018-May-20 23:00N 39°48' W 075°24'0 0.3
2018-May-20 22:30N 39°49' W 075°24'0 0.0
2018-May-20 22:00N 39°49' W 075°24'0 0.1
2018-May-20 21:29N 39°49' W 075°24'2 3.7
2018-May-20 21:00N 39°50' W 075°22'4 7.1
2018-May-20 20:30N 39°51' W 075°18'1 2.5
2018-May-20 19:58N 39°51' W 075°16'0 0.0
2018-May-20 19:28N 39°51' W 075°16'0 0.0
2018-May-20 18:58N 39°51' W 075°16'0 0.0
2018-May-20 18:28N 39°51' W 075°16'0 0.0
2018-May-20 17:58N 39°51' W 075°16'0 0.0
2018-May-20 17:28N 39°51' W 075°16'0 0.0
2018-May-20 16:58N 39°51' W 075°16'0 0.0
2018-May-20 16:28N 39°51' W 075°16'0 0.0
2018-May-20 15:58N 39°51' W 075°16'0 0.0
2018-May-20 15:28N 39°51' W 075°16'0 0.0
2018-May-20 14:58N 39°51' W 075°16'0 0.0
2018-May-20 14:28N 39°51' W 075°16'0 0.0
2018-May-20 13:58N 39°51' W 075°16'0 0.0
2018-May-20 13:28N 39°51' W 075°16'0 0.0
2018-May-20 12:58N 39°51' W 075°16'0 0.0
2018-May-20 12:28N 39°51' W 075°16'0 0.0
2018-May-20 11:58N 39°51' W 075°16'0 0.0
2018-May-20 11:28N 39°51' W 075°16'0 0.0
2018-May-20 10:58N 39°51' W 075°16'0 0.0
2018-May-20 10:28N 39°51' W 075°16'0 0.0
2018-May-20 09:58N 39°51' W 075°16'0 0.0
2018-May-20 09:28N 39°51' W 075°16'0 0.0
2018-May-20 08:58N 39°51' W 075°16'0 0.0
2018-May-20 08:28N 39°51' W 075°16'0 0.0
2018-May-20 07:58N 39°51' W 075°16'0 0.0
2018-May-20 07:28N 39°51' W 075°16'0 0.0
2018-May-20 06:58N 39°51' W 075°16'0 0.0
2018-May-20 06:28N 39°51' W 075°16'0 0.0
2018-May-20 05:58N 39°51' W 075°16'0 0.0
2018-May-20 05:28N 39°51' W 075°16'0 0.0
2018-May-20 04:58N 39°51' W 075°16'0 0.0
2018-May-20 04:28N 39°51' W 075°16'0 0.0
2018-May-20 03:58N 39°51' W 075°16'0 0.0
2018-May-20 03:28N 39°51' W 075°16'0 0.0
2018-May-20 02:58N 39°51' W 075°16'0 0.0
2018-May-20 02:28N 39°51' W 075°16'0 0.0
2018-May-20 01:58N 39°51' W 075°16'0 0.0
2018-May-20 01:28N 39°51' W 075°16'0 0.0
2018-May-20 00:58N 39°51' W 075°16'0 0.0
2018-May-20 00:28N 39°51' W 075°16'0 0.0
2018-May-19 23:58N 39°51' W 075°16'0 0.0
2018-May-19 23:28N 39°51' W 075°16'0 0.0
2018-May-19 22:58N 39°51' W 075°16'0 0.0
2018-May-19 22:28N 39°51' W 075°16'0 0.0
2018-May-19 21:58N 39°51' W 075°16'0 0.0
2018-May-19 21:28N 39°51' W 075°16'0 0.0
2018-May-19 20:58N 39°51' W 075°16'0 0.0
2018-May-19 20:28N 39°51' W 075°16'0 0.0
2018-May-19 20:01N 39°51' W 075°16'0 0.0
2018-May-19 19:28N 39°51' W 075°16'0 0.0
2018-May-19 19:01N 39°51' W 075°16'0 0.0
2018-May-19 18:28N 39°51' W 075°16'0 0.0
2018-May-19 17:58N 39°51' W 075°16'0 0.0
2018-May-19 17:28N 39°51' W 075°16'0 0.0
2018-May-19 16:58N 39°51' W 075°16'0 0.0
2018-May-19 16:28N 39°51' W 075°16'0 0.0
2018-May-19 15:58N 39°51' W 075°16'0 0.0
2018-May-19 15:28N 39°51' W 075°16'0 0.0
2018-May-19 14:58N 39°51' W 075°16'0 0.0
2018-May-19 14:31N 39°51' W 075°16'0 0.0
2018-May-19 13:58N 39°51' W 075°16'0 0.0
2018-May-19 13:28N 39°51' W 075°16'0 0.0
2018-May-19 12:58N 39°51' W 075°16'0 0.0
2018-May-19 12:28N 39°51' W 075°16'0 0.0
2018-May-19 11:58N 39°51' W 075°16'0 0.0
2018-May-19 11:31N 39°51' W 075°16'0 0.0
2018-May-19 10:58N 39°51' W 075°16'0 0.0
2018-May-19 10:28N 39°51' W 075°16'0 0.0
2018-May-19 09:58N 39°51' W 075°16'0 0.0
2018-May-19 09:28N 39°51' W 075°16'0 0.0
2018-May-19 08:58N 39°51' W 075°16'0 0.0
2018-May-19 08:28N 39°51' W 075°16'0 0.0
2018-May-19 07:58N 39°51' W 075°16'0 0.0
2018-May-19 07:28N 39°51' W 075°16'0 0.0
2018-May-19 07:01N 39°51' W 075°16'0 0.0
2018-May-19 06:31N 39°51' W 075°16'0 0.0
2018-May-19 05:58N 39°51' W 075°16'0 0.0
2018-May-19 05:28N 39°51' W 075°16'0 0.0
2018-May-19 04:58N 39°51' W 075°16'0 0.0
2018-May-19 04:31N 39°51' W 075°16'0 0.0
2018-May-19 03:58N 39°51' W 075°16'0 0.0
2018-May-19 03:28N 39°51' W 075°16'0 0.0
2018-May-19 02:58N 39°51' W 075°16'0 0.0
2018-May-19 02:28N 39°51' W 075°16'0 0.0
2018-May-19 01:58N 39°51' W 075°16'0 0.0
2018-May-19 01:28N 39°51' W 075°16'0 0.0
2018-May-19 00:58N 39°51' W 075°16'0 0.0
2018-May-19 00:28N 39°51' W 075°16'0 0.0
2018-May-19 00:00N 39°51' W 075°16'0 0.0
2018-May-18 23:28N 39°51' W 075°16'0 0.0
2018-May-18 22:58N 39°51' W 075°16'0 0.0
2018-May-18 22:28N 39°51' W 075°16'0 0.0
2018-May-18 21:58N 39°51' W 075°16'0 0.0
2018-May-18 21:28N 39°51' W 075°16'0 0.0
2018-May-18 20:58N 39°51' W 075°16'0 0.0
2018-May-18 20:27N 39°51' W 075°16'0 0.0
2018-May-18 19:58N 39°51' W 075°16'0 0.0
2018-May-18 19:31N 39°51' W 075°16'0 0.0
2018-May-18 19:00N 39°51' W 075°16'0 0.5
2018-May-18 18:30N 39°51' W 075°16'5 9.9
2018-May-18 18:01N 39°50' W 075°22'2 4.7
2018-May-18 17:31N 39°48' W 075°24'0 0.2
2018-May-18 17:00N 39°48' W 075°24'0 0.4
2018-May-18 16:29N 39°48' W 075°24'0 0.0
2018-May-18 15:59N 39°48' W 075°25'0 0.0
2018-May-18 15:29N 39°48' W 075°25'0 0.0
2018-May-18 14:59N 39°48' W 075°25'0 0.0
2018-May-18 14:29N 39°48' W 075°25'0 0.0
2018-May-18 13:59N 39°48' W 075°25'0 0.0
2018-May-18 13:29N 39°48' W 075°25'0 0.0
2018-May-18 12:59N 39°48' W 075°25'0 0.0
2018-May-18 12:29N 39°48' W 075°25'0 0.1
2018-May-18 11:59N 39°48' W 075°24'0 0.0
2018-May-18 11:29N 39°48' W 075°24'0 0.0
2018-May-18 10:59N 39°48' W 075°24'0 0.0
2018-May-18 10:29N 39°48' W 075°25'0 0.0
2018-May-18 09:59N 39°48' W 075°25'0 0.0
2018-May-18 09:29N 39°48' W 075°25'0 0.2
2018-May-18 08:59N 39°48' W 075°25'0 0.3
2018-May-18 08:29N 39°48' W 075°24'0 0.1
2018-May-18 07:59N 39°48' W 075°24'0 0.0
2018-May-18 07:29N 39°48' W 075°24'0 0.0
2018-May-18 06:59N 39°48' W 075°24'0 0.0
2018-May-18 06:29N 39°48' W 075°24'0 0.0
2018-May-18 05:59N 39°48' W 075°24'0 0.0
2018-May-18 05:29N 39°48' W 075°24'0 0.0
2018-May-18 04:59N 39°48' W 075°24'0 0.0
2018-May-18 04:29N 39°48' W 075°24'0 0.0
2018-May-18 03:59N 39°48' W 075°24'0 0.0
2018-May-18 03:29N 39°48' W 075°24'0 0.4
2018-May-18 02:59N 39°48' W 075°24'0 0.1
2018-May-18 02:26N 39°48' W 075°24'0 0.1
2018-May-18 01:59N 39°48' W 075°24'0 0.0
2018-May-18 01:29N 39°48' W 075°24'0 0.9
2018-May-18 01:00N 39°48' W 075°25'5 9.0
2018-May-18 00:30N 39°45' W 075°29'5 9.3
2018-May-18 00:00N 39°41' W 075°31'4 8.9
2018-May-17 23:30N 39°37' W 075°35'5 9.0
2018-May-17 23:00N 39°33' W 075°33'5 9.3
2018-May-17 22:30N 39°28' W 075°34'4 8.9
2018-May-17 22:00N 39°25' W 075°30'4 9.1
2018-May-17 21:30N 39°21' W 075°26'5 9.0
2018-May-17 21:00N 39°18' W 075°23'5 9.3
2018-May-17 20:31N 39°14' W 075°19'5 9.3
2018-May-17 20:00N 39°10' W 075°16'5 9.8
2018-May-17 19:30N 39°06' W 075°12'5 9.7
2018-May-17 19:00N 39°02' W 075°09'5 9.7
2018-May-17 18:30N 38°57' W 075°07'5 9.9
2018-May-17 18:00N 38°53' W 075°04'37 8.1
2018-May-17 13:26N 39°07' W 074°21'1311.7
2018-May-17 12:18N 39°18' W 074°11'611.7
2018-May-17 11:47N 39°24' W 074°07'611.7
2018-May-17 11:18N 39°28' W 074°03'411.7
2018-May-17 10:59N 39°31' W 074°01'611.9
2018-May-17 10:29N 39°37' W 073°57'611.5
2018-May-17 10:00N 39°42' W 073°55'711.7
2018-May-17 09:27N 39°48' W 073°54'611.5
2018-May-17 08:56N 39°54' W 073°52'3910.9
2018-May-17 05:22N 40°32' W 074°01'513.2
2018-May-17 05:00N 40°37' W 074°03'3 4.2
2018-May-17 04:18N 40°39' W 074°06'0 0.0
2018-May-17 03:58N 40°39' W 074°06'0 0.0
2018-May-17 03:18N 40°39' W 074°06'0 0.0
2018-May-17 03:00N 40°39' W 074°06'0 0.0
2018-May-17 02:30N 40°39' W 074°06'0 0.0
2018-May-17 01:00N 40°39' W 074°06'0 0.0
2018-May-17 00:30N 40°39' W 074°06'0 0.0
2018-May-17 00:00N 40°39' W 074°06'0 0.0
2018-May-16 23:30N 40°39' W 074°06'0 0.0
2018-May-16 23:00N 40°39' W 074°06'0 0.0
2018-May-16 22:30N 40°39' W 074°06'0 0.0
2018-May-16 21:57N 40°39' W 074°06'0 0.0
2018-May-16 21:30N 40°39' W 074°06'0 0.0
2018-May-16 21:00N 40°39' W 074°06'0 0.0
2018-May-16 20:24N 40°39' W 074°06'0 0.0
2018-May-16 19:50N 40°39' W 074°06'0 0.0
2018-May-16 19:27N 40°39' W 074°06'0 0.0
2018-May-16 18:59N 40°39' W 074°06'0 0.0
2018-May-16 17:47N 40°39' W 074°06'0 0.0
2018-May-16 17:30N 40°39' W 074°06'0 0.0
2018-May-16 16:59N 40°39' W 074°06'0 0.0
2018-May-16 16:30N 40°39' W 074°06'0 0.0
2018-May-16 15:59N 40°39' W 074°06'0 0.0
2018-May-16 15:29N 40°39' W 074°06'0 0.0
2018-May-16 14:59N 40°39' W 074°06'0 0.0
2018-May-16 14:23N 40°39' W 074°06'0 0.0
2018-May-16 13:53N 40°39' W 074°06'0 0.0
2018-May-16 12:35N 40°39' W 074°06'0 0.0
2018-May-16 12:17N 40°39' W 074°06'0 0.1
2018-May-16 12:00N 40°39' W 074°06'2 3.3
2018-May-16 11:30N 40°39' W 074°04'3 6.3
2018-May-16 11:00N 40°36' W 074°02'3 6.7
2018-May-16 10:30N 40°33' W 074°01'611.6
2018-May-16 09:58N 40°29' W 073°54'5 0.8
2018-May-16 03:50N 40°24' W 073°55'0 0.0
2018-May-16 01:44N 40°24' W 073°55'0 0.0
2018-May-16 01:26N 40°24' W 073°55'0 0.0
2018-May-15 23:26N 40°24' W 073°55'134 9.1
2018-May-15 08:44N 38°12' W 074°24'312.0
2018-May-15 08:30N 38°10' W 074°25'611.5
2018-May-15 07:57N 38°04' W 074°28'611.2
2018-May-15 07:26N 37°58' W 074°30'511.6
2018-May-15 07:00N 37°53' W 074°32'20911.6
2018-May-14 13:01N 34°31' W 075°37'114.1
2018-May-14 12:59N 34°30' W 075°38'4714.2
2018-May-14 09:41N 33°51' W 076°09'312.8
2018-May-14 09:29N 33°49' W 076°11'612.9
2018-May-14 09:00N 33°44' W 076°15'612.6
2018-May-14 08:30N 33°40' W 076°20'612.8
2018-May-14 08:00N 33°35' W 076°25'713.7
2018-May-14 07:29N 33°30' W 076°31'714.4
2018-May-14 07:00N 33°24' W 076°37'914.6
2018-May-14 06:23N 33°18' W 076°44'614.5
2018-May-14 06:00N 33°14' W 076°49'814.5
2018-May-14 05:27N 33°08' W 076°55'39813.3
2018-May-12 23:23N 27°00' W 079°52'3015.0
2018-May-12 21:23N 26°30' W 079°52'615.4
2018-May-12 21:01N 26°24' W 079°53'815.4
2018-May-12 20:30N 26°16' W 079°53'815.5
2018-May-12 20:00N 26°09' W 079°54'714.8
2018-May-12 19:30N 26°01' W 079°55'815.8
2018-May-12 19:01N 25°54' W 079°56'815.7
2018-May-12 18:30N 25°46' W 079°56'815.4
2018-May-12 18:01N 25°38' W 079°57'815.1
2018-May-12 17:30N 25°30' W 079°57'714.8
2018-May-12 17:00N 25°23' W 079°58'  

Dump ship's entire track history